createdAt,value
2023-04-27T00:03:10.058Z,1010.551
2023-04-27T00:23:08.057Z,1010.541
2023-04-27T00:43:07.932Z,1010.555
2023-04-27T01:03:09.270Z,1010.683
2023-04-27T01:23:07.398Z,1010.904
2023-04-27T01:43:07.327Z,1011.122
2023-04-27T02:03:08.753Z,1011.368
2023-04-27T02:23:07.613Z,1011.348
2023-04-27T02:43:07.416Z,1011.332
2023-04-27T03:03:09.016Z,1011.335
2023-04-27T03:23:07.735Z,1011.095
2023-04-27T03:43:07.504Z,1011.146
2023-04-27T04:03:09.390Z,1011.232
2023-04-27T04:23:07.449Z,1011.45
2023-04-27T04:43:07.650Z,1011.73
2023-04-27T05:03:09.234Z,1011.752
2023-04-27T05:23:08.051Z,1011.867
2023-04-27T05:43:07.923Z,1012.07
2023-04-27T06:03:09.557Z,1012.195
2023-04-27T06:23:07.613Z,1012.169
2023-04-27T06:43:07.896Z,1012.275
2023-04-27T07:03:09.416Z,1012.324
2023-04-27T07:23:07.186Z,1012.259
2023-04-27T07:43:08.244Z,1012.159
2023-04-27T08:03:09.526Z,1012.044
2023-04-27T08:23:07.602Z,1012.081
2023-04-27T08:43:07.454Z,1012.083
2023-04-27T09:03:09.014Z,1012.015
2023-04-27T09:23:07.836Z,1011.995
2023-04-27T09:43:07.719Z,1011.976
2023-04-27T10:03:09.009Z,1011.794
2023-04-27T10:23:07.861Z,1011.546
2023-04-27T10:43:07.744Z,1011.384
2023-04-27T11:03:08.945Z,1011.24
2023-04-27T11:23:08.031Z,1011.07
2023-04-27T11:43:07.896Z,1010.857
2023-04-27T12:03:09.903Z,1010.919
2023-04-27T12:23:07.934Z,1010.798
2023-04-27T12:43:07.814Z,1010.72
2023-04-27T13:03:09.508Z,1010.719
2023-04-27T13:23:07.376Z,1010.646
2023-04-27T13:43:07.384Z,1010.464
2023-04-27T14:03:08.690Z,1010.292
2023-04-27T14:23:07.847Z,1010.23
2023-04-27T14:43:07.865Z,1010.025
2023-04-27T15:03:09.161Z,1009.793
2023-04-27T15:23:08.232Z,1009.702
2023-04-27T15:43:07.404Z,1009.569
2023-04-27T16:03:12.223Z,1009.35
2023-04-27T16:23:07.223Z,1009.279
2023-04-27T16:43:07.165Z,1009.025
2023-04-27T17:03:09.328Z,1008.962
2023-04-27T17:23:07.258Z,1008.861
2023-04-27T17:43:07.398Z,1008.722
2023-04-27T18:03:08.916Z,1008.713
2023-04-27T18:23:07.921Z,1008.521
2023-04-27T18:43:08.124Z,1008.578
2023-04-27T19:03:09.865Z,1008.604
2023-04-27T19:23:08.055Z,1008.666
2023-04-27T19:43:08.139Z,1008.834
2023-04-27T20:03:09.634Z,1008.57
2023-04-27T20:23:07.497Z,1008.408
2023-04-27T20:43:07.498Z,1008.229
2023-04-27T21:03:09.312Z,1008.013
2023-04-27T21:23:07.263Z,1007.991
2023-04-27T21:43:07.365Z,1007.701
2023-04-27T22:03:09.349Z,1007.347
2023-04-27T22:23:07.209Z,1007.034
2023-04-27T22:43:08.026Z,1006.708
2023-04-27T23:03:09.517Z,1006.51
2023-04-27T23:23:07.417Z,1006.335
2023-04-27T23:43:08.114Z,1006.062
